createdAt,value
2022-12-04T00:01:28.030Z,5.53
2022-12-04T00:03:54.430Z,5.44
2022-12-04T00:06:20.902Z,5.14
2022-12-04T00:08:47.283Z,5.08
2022-12-04T00:11:13.688Z,5.41
2022-12-04T00:13:40.081Z,4.96
2022-12-04T00:16:06.498Z,5.08
2022-12-04T00:18:32.951Z,5.42
2022-12-04T00:20:59.340Z,5.26
2022-12-04T00:23:25.755Z,5.22
2022-12-04T00:25:52.159Z,5.17
2022-12-04T00:28:18.653Z,5.07
2022-12-04T00:30:45.093Z,5.40
2022-12-04T00:33:11.473Z,5.48
2022-12-04T00:35:37.869Z,5.32
2022-12-04T00:38:04.229Z,5.33
2022-12-04T00:40:30.647Z,5.14
2022-12-04T00:42:57.064Z,5.66
2022-12-04T00:45:23.544Z,5.22
2022-12-04T00:47:50.102Z,5.06
2022-12-04T00:50:16.495Z,5.15
2022-12-04T00:52:42.911Z,4.87
2022-12-04T00:55:09.310Z,5.19
2022-12-04T00:57:35.712Z,5.35
2022-12-04T01:00:02.094Z,5.16
2022-12-04T01:02:28.457Z,5.14
2022-12-04T01:04:54.844Z,5.20
2022-12-04T01:07:21.298Z,5.17
2022-12-04T01:09:47.700Z,4.99
2022-12-04T01:12:20.380Z,5.03
2022-12-04T01:14:47.217Z,5.11
2022-12-04T01:17:13.619Z,5.04
2022-12-04T01:19:40.049Z,5.04
2022-12-04T01:22:06.420Z,5.12
2022-12-04T01:24:32.885Z,5.32
2022-12-04T01:26:59.287Z,5.12
2022-12-04T01:29:25.658Z,5.03
2022-12-04T01:31:52.150Z,4.78
2022-12-04T01:34:18.543Z,4.57
2022-12-04T01:36:45.110Z,4.85
2022-12-04T01:39:11.478Z,4.70
2022-12-04T01:41:37.951Z,4.72
2022-12-04T01:44:04.355Z,5.00
2022-12-04T01:46:30.838Z,4.54
2022-12-04T01:48:58.161Z,4.69
2022-12-04T01:51:24.517Z,4.85
2022-12-04T01:53:50.895Z,4.99
2022-12-04T01:56:17.337Z,4.84
2022-12-04T01:58:43.701Z,4.92
2022-12-04T02:01:10.199Z,4.89
2022-12-04T02:03:36.638Z,4.86
2022-12-04T02:06:03.021Z,4.44
2022-12-04T02:08:29.442Z,4.92
2022-12-04T02:10:55.941Z,4.56
2022-12-04T02:13:22.342Z,4.48
2022-12-04T02:15:48.759Z,4.83
2022-12-04T02:18:15.201Z,4.84
2022-12-04T02:20:41.595Z,4.85
2022-12-04T02:23:08.016Z,4.53
2022-12-04T02:25:34.386Z,4.44
2022-12-04T02:28:00.807Z,4.29
2022-12-04T02:30:27.250Z,4.40
2022-12-04T02:32:53.763Z,4.40
2022-12-04T02:35:20.180Z,4.51
2022-12-04T02:37:46.571Z,4.47
2022-12-04T02:40:12.987Z,4.33
2022-12-04T02:42:39.528Z,4.22
2022-12-04T02:45:06.036Z,4.57
2022-12-04T02:47:32.419Z,4.34
2022-12-04T02:49:59.042Z,4.59
2022-12-04T02:52:25.531Z,4.49
2022-12-04T02:54:51.938Z,4.67
2022-12-04T02:57:18.527Z,4.11
2022-12-04T02:59:44.934Z,4.49
2022-12-04T03:02:11.549Z,4.43
2022-12-04T03:04:37.987Z,4.20
2022-12-04T03:07:04.388Z,4.43
2022-12-04T03:09:30.977Z,4.63
2022-12-04T03:11:57.376Z,3.94
2022-12-04T03:14:23.810Z,4.13
2022-12-04T03:16:50.277Z,4.35
2022-12-04T03:19:16.693Z,4.24
2022-12-04T03:21:43.126Z,4.20
2022-12-04T03:24:09.528Z,4.17
2022-12-04T03:26:35.947Z,3.83
2022-12-04T03:29:02.353Z,4.15
2022-12-04T03:31:28.753Z,4.25
2022-12-04T03:33:55.147Z,4.26
2022-12-04T03:36:21.535Z,4.28
2022-12-04T03:38:47.961Z,4.34
2022-12-04T03:41:14.315Z,4.16
2022-12-04T03:43:40.735Z,3.84
2022-12-04T03:46:07.200Z,4.21
2022-12-04T03:48:33.620Z,4.08
2022-12-04T03:50:59.999Z,4.31
2022-12-04T03:53:26.388Z,4.28
2022-12-04T03:55:52.794Z,3.92
2022-12-04T03:58:19.163Z,3.67
2022-12-04T04:00:45.549Z,3.93
2022-12-04T04:03:11.953Z,4.19
2022-12-04T04:05:38.396Z,4.27
2022-12-04T04:08:04.901Z,4.13
2022-12-04T04:10:31.357Z,4.17
2022-12-04T04:12:57.762Z,4.21
2022-12-04T04:15:25.645Z,4.27
2022-12-04T04:17:52.003Z,4.30
2022-12-04T04:20:18.453Z,4.36
2022-12-04T04:22:44.856Z,4.31
2022-12-04T04:25:11.246Z,4.34
2022-12-04T04:27:37.634Z,4.08
2022-12-04T04:30:04.011Z,4.09
2022-12-04T04:32:30.409Z,4.27
2022-12-04T04:34:56.788Z,3.99
2022-12-04T04:37:23.173Z,4.58
2022-12-04T04:39:49.599Z,3.86
2022-12-04T04:42:16.167Z,3.98
2022-12-04T04:44:42.580Z,4.35
2022-12-04T04:47:08.977Z,4.23
2022-12-04T04:49:35.397Z,4.19
2022-12-04T04:52:01.812Z,4.43
2022-12-04T04:54:28.281Z,3.91
2022-12-04T04:56:54.678Z,4.04
2022-12-04T04:59:21.029Z,4.18
2022-12-04T05:01:47.515Z,4.29
2022-12-04T05:04:14.005Z,4.06
2022-12-04T05:06:40.496Z,3.96
2022-12-04T05:09:07.073Z,3.98
2022-12-04T05:11:33.473Z,4.31
2022-12-04T05:13:59.822Z,4.27
2022-12-04T05:16:26.259Z,4.18
2022-12-04T05:18:52.805Z,4.23
2022-12-04T05:21:19.229Z,4.18
2022-12-04T05:23:45.660Z,4.17
2022-12-04T05:26:12.048Z,3.91
2022-12-04T05:28:38.497Z,4.11
2022-12-04T05:31:04.949Z,3.96
2022-12-04T05:33:31.387Z,3.92
2022-12-04T05:35:57.781Z,4.09
2022-12-04T05:38:24.258Z,3.94
2022-12-04T05:40:50.619Z,4.30
2022-12-04T05:43:17.016Z,4.35
2022-12-04T05:45:43.509Z,3.83
2022-12-04T05:48:09.955Z,4.07
2022-12-04T05:50:36.357Z,4.14
2022-12-04T05:53:02.772Z,3.79
2022-12-04T05:55:29.277Z,3.81
2022-12-04T05:57:55.713Z,4.09
2022-12-04T06:00:22.182Z,4.34
2022-12-04T06:02:48.656Z,4.06
2022-12-04T06:05:15.026Z,4.01
2022-12-04T06:07:41.504Z,3.89
2022-12-04T06:10:08.122Z,4.36
2022-12-04T06:12:34.513Z,3.96
2022-12-04T06:15:00.946Z,4.29
2022-12-04T06:17:27.457Z,4.36
2022-12-04T06:19:54.365Z,4.34
2022-12-04T06:22:20.938Z,4.17
2022-12-04T06:24:47.350Z,4.03
2022-12-04T06:27:29.286Z,4.20
2022-12-04T06:29:56.269Z,4.21
2022-12-04T06:32:22.866Z,4.28
2022-12-04T06:34:49.262Z,4.30
2022-12-04T06:37:15.715Z,4.45
2022-12-04T06:39:42.209Z,4.72
2022-12-04T06:42:08.625Z,4.58
2022-12-04T06:44:35.056Z,4.50
2022-12-04T06:47:01.495Z,4.37
2022-12-04T06:49:27.906Z,4.61
2022-12-04T06:51:54.346Z,4.60
2022-12-04T06:54:20.723Z,4.57
2022-12-04T06:56:47.207Z,4.65
2022-12-04T06:59:13.708Z,4.57
2022-12-04T07:01:40.156Z,4.69
2022-12-04T07:04:06.573Z,4.75
2022-12-04T07:06:33.019Z,5.04
2022-12-04T07:08:59.441Z,5.25
2022-12-04T07:11:25.883Z,5.32
2022-12-04T07:13:52.246Z,5.65
2022-12-04T07:16:18.706Z,6.07
2022-12-04T07:18:45.114Z,5.98
2022-12-04T07:21:11.516Z,6.94
2022-12-04T07:23:37.898Z,6.58
2022-12-04T07:26:04.336Z,6.29
2022-12-04T07:28:31.889Z,6.43
2022-12-04T07:30:58.405Z,6.98
2022-12-04T07:33:24.843Z,7.16
2022-12-04T07:35:51.347Z,7.45
2022-12-04T07:38:17.752Z,7.57
2022-12-04T07:40:44.225Z,7.07
2022-12-04T07:43:10.660Z,7.82
2022-12-04T07:45:37.541Z,8.00
2022-12-04T07:48:03.961Z,7.75
2022-12-04T07:50:30.424Z,7.60
2022-12-04T07:52:56.821Z,8.08
2022-12-04T07:55:23.523Z,7.99
2022-12-04T07:57:49.979Z,7.49
2022-12-04T08:00:16.378Z,7.90
2022-12-04T08:02:42.757Z,8.04
2022-12-04T08:05:09.139Z,8.08
2022-12-04T08:07:35.572Z,7.87
2022-12-04T08:10:02.001Z,7.70
2022-12-04T08:12:28.422Z,7.64
2022-12-04T08:14:54.796Z,7.80
2022-12-04T08:17:21.523Z,7.71
2022-12-04T08:19:47.952Z,7.70
2022-12-04T08:22:14.405Z,7.78
2022-12-04T08:24:40.832Z,7.72
2022-12-04T08:27:07.217Z,7.66
2022-12-04T08:29:33.637Z,7.41
2022-12-04T08:32:00.070Z,7.63
2022-12-04T08:34:26.470Z,7.66
2022-12-04T08:36:52.846Z,7.81
2022-12-04T08:39:19.332Z,7.87
2022-12-04T08:41:45.742Z,7.95
2022-12-04T08:44:12.124Z,7.97
2022-12-04T08:46:38.685Z,7.44
2022-12-04T08:49:05.142Z,7.57
2022-12-04T08:51:31.536Z,7.76
2022-12-04T08:53:57.961Z,7.41
2022-12-04T08:56:24.458Z,7.95
2022-12-04T08:58:50.855Z,7.44
2022-12-04T09:01:17.260Z,7.76
2022-12-04T09:03:43.706Z,7.88
2022-12-04T09:06:10.116Z,7.36
2022-12-04T09:08:36.461Z,7.38
2022-12-04T09:11:02.851Z,7.60
2022-12-04T09:13:29.265Z,7.64
2022-12-04T09:15:55.689Z,8.04
2022-12-04T09:18:22.125Z,7.65
2022-12-04T09:20:48.525Z,7.63
2022-12-04T09:23:14.887Z,7.64
2022-12-04T09:25:41.293Z,7.51
2022-12-04T09:28:07.725Z,7.90
2022-12-04T09:30:34.151Z,7.71
2022-12-04T09:33:00.537Z,7.97
2022-12-04T09:35:26.934Z,7.77
2022-12-04T09:37:53.313Z,7.26
2022-12-04T09:40:19.668Z,7.34
2022-12-04T09:42:46.032Z,7.86
2022-12-04T09:45:12.407Z,7.46
2022-12-04T09:47:38.895Z,7.67
2022-12-04T09:50:05.322Z,7.57
2022-12-04T09:52:31.754Z,7.62
2022-12-04T09:54:58.189Z,7.57
2022-12-04T09:57:24.568Z,7.53
2022-12-04T09:59:50.937Z,7.96
2022-12-04T10:02:17.368Z,7.73
2022-12-04T10:04:43.998Z,7.71
2022-12-04T10:07:10.370Z,7.49
2022-12-04T10:09:36.759Z,8.02
2022-12-04T10:12:03.156Z,7.99
2022-12-04T10:14:29.575Z,7.68
2022-12-04T10:16:56.033Z,7.53
2022-12-04T10:19:22.448Z,7.93
2022-12-04T10:21:48.859Z,7.74
2022-12-04T10:24:15.252Z,7.85
2022-12-04T10:26:41.662Z,7.47
2022-12-04T10:29:08.055Z,7.37
2022-12-04T10:31:34.604Z,7.58
2022-12-04T10:34:01.019Z,7.26
2022-12-04T10:36:27.458Z,7.72
2022-12-04T10:38:53.879Z,7.60
2022-12-04T10:41:20.298Z,7.68
2022-12-04T10:43:46.712Z,7.65
2022-12-04T10:46:13.159Z,7.62
2022-12-04T10:48:39.553Z,7.32
2022-12-04T10:51:05.925Z,7.58
2022-12-04T10:53:32.346Z,7.44
2022-12-04T10:55:58.765Z,7.68
2022-12-04T10:58:25.252Z,7.79
2022-12-04T11:00:51.630Z,7.50
2022-12-04T11:03:18.049Z,7.55
2022-12-04T11:05:44.503Z,7.39
2022-12-04T11:08:12.540Z,7.32
2022-12-04T11:10:41.975Z,7.65
2022-12-04T11:13:08.400Z,7.84
2022-12-04T11:15:34.833Z,7.52
2022-12-04T11:18:01.230Z,7.34
2022-12-04T11:20:27.695Z,7.18
2022-12-04T11:22:54.114Z,7.41
2022-12-04T11:25:20.502Z,7.34
2022-12-04T11:27:47.046Z,7.53
2022-12-04T11:30:13.533Z,7.42
2022-12-04T11:32:39.928Z,7.87
2022-12-04T11:35:06.371Z,7.18
2022-12-04T11:37:32.752Z,7.87
2022-12-04T11:39:59.312Z,7.53
2022-12-04T11:42:25.827Z,7.33
2022-12-04T11:44:52.202Z,7.58
2022-12-04T11:47:18.626Z,7.43
2022-12-04T11:49:45.049Z,7.57
2022-12-04T11:52:11.472Z,7.33
2022-12-04T11:54:37.837Z,6.92
2022-12-04T11:57:04.213Z,7.28
2022-12-04T11:59:30.583Z,7.19
2022-12-04T12:01:58.720Z,7.34
2022-12-04T12:04:25.320Z,6.78
2022-12-04T12:06:51.701Z,7.42
2022-12-04T12:09:18.101Z,6.94
2022-12-04T12:11:44.521Z,7.13
2022-12-04T12:14:11.020Z,7.58
2022-12-04T12:16:37.459Z,7.48
2022-12-04T12:19:03.894Z,7.37
2022-12-04T12:21:30.327Z,7.19
2022-12-04T12:23:56.708Z,7.33
2022-12-04T12:26:23.159Z,7.08
2022-12-04T12:28:49.597Z,7.29
2022-12-04T12:31:16.109Z,7.51
2022-12-04T12:33:42.576Z,7.47
2022-12-04T12:36:09.009Z,7.14
2022-12-04T12:38:35.405Z,7.27
2022-12-04T12:41:01.812Z,7.48
2022-12-04T12:43:28.207Z,7.13
2022-12-04T12:45:54.692Z,7.16
2022-12-04T12:48:21.127Z,7.11
2022-12-04T12:50:54.720Z,6.75
2022-12-04T12:53:29.756Z,6.81
2022-12-04T12:55:56.202Z,7.01
2022-12-04T12:58:22.624Z,7.07
2022-12-04T13:00:49.181Z,6.98
2022-12-04T13:03:15.654Z,6.89
2022-12-04T13:05:42.007Z,6.76
2022-12-04T13:08:08.423Z,6.98
2022-12-04T13:10:34.958Z,7.24
2022-12-04T13:13:01.443Z,7.28
2022-12-04T13:15:27.979Z,6.88
2022-12-04T13:17:54.387Z,7.01
2022-12-04T13:20:20.759Z,7.02
2022-12-04T13:22:47.135Z,6.83
2022-12-04T13:25:13.613Z,6.83
2022-12-04T13:27:40.011Z,6.97
2022-12-04T13:30:06.434Z,7.01
2022-12-04T13:32:32.777Z,7.02
2022-12-04T13:34:59.179Z,6.89
2022-12-04T13:37:25.580Z,7.11
2022-12-04T13:39:51.970Z,7.18
2022-12-04T13:42:18.314Z,6.91
2022-12-04T13:44:44.700Z,7.38
2022-12-04T13:47:11.050Z,7.32
2022-12-04T13:49:37.483Z,7.17
2022-12-04T13:52:03.890Z,7.14
2022-12-04T13:54:30.258Z,7.12
2022-12-04T13:56:56.652Z,7.53
2022-12-04T13:59:22.996Z,6.98
2022-12-04T14:01:49.460Z,6.98
2022-12-04T14:04:15.892Z,7.25
2022-12-04T14:06:42.262Z,7.36
2022-12-04T14:09:08.661Z,7.35
2022-12-04T14:11:35.097Z,6.89
2022-12-04T14:14:06.588Z,7.05
2022-12-04T14:16:34.465Z,7.15
2022-12-04T14:19:00.853Z,7.10
2022-12-04T14:21:27.285Z,6.70
2022-12-04T14:23:53.626Z,7.30
2022-12-04T14:26:20.037Z,7.09
2022-12-04T14:28:46.458Z,7.15
2022-12-04T14:31:13.013Z,6.97
2022-12-04T14:33:39.419Z,6.49
2022-12-04T14:36:05.756Z,6.74
2022-12-04T14:38:32.162Z,6.98
2022-12-04T14:40:58.544Z,7.07
2022-12-04T14:43:24.921Z,6.78
2022-12-04T14:45:51.432Z,7.31
2022-12-04T14:48:17.818Z,7.05
2022-12-04T14:50:44.463Z,6.88
2022-12-04T14:53:10.901Z,6.87
2022-12-04T14:55:37.311Z,6.76
2022-12-04T14:58:03.784Z,6.84
2022-12-04T15:00:30.215Z,6.67
2022-12-04T15:02:56.627Z,6.73
2022-12-04T15:05:23.006Z,6.87
2022-12-04T15:07:49.570Z,6.71
2022-12-04T15:10:15.985Z,6.56
2022-12-04T15:12:42.350Z,6.85
2022-12-04T15:15:08.772Z,6.97
2022-12-04T15:17:35.222Z,7.02
2022-12-04T15:20:01.742Z,7.23
2022-12-04T15:22:28.109Z,6.87
2022-12-04T15:24:54.960Z,6.74
2022-12-04T15:27:21.693Z,7.24
2022-12-04T15:29:48.115Z,6.70
2022-12-04T15:32:14.617Z,7.56
2022-12-04T15:34:40.991Z,7.08
2022-12-04T15:37:07.364Z,7.02
2022-12-04T15:39:34.164Z,6.98
2022-12-04T15:42:00.557Z,6.76
2022-12-04T15:44:26.923Z,7.18
2022-12-04T15:46:53.377Z,6.83
2022-12-04T15:49:19.849Z,6.90
2022-12-04T15:51:46.397Z,7.13
2022-12-04T15:54:12.822Z,6.80
2022-12-04T15:56:39.218Z,7.06
2022-12-04T15:59:05.584Z,6.86
2022-12-04T16:01:32.026Z,7.22
2022-12-04T16:03:58.481Z,7.01
2022-12-04T16:06:24.877Z,7.28
2022-12-04T16:08:51.215Z,6.99
2022-12-04T16:11:17.572Z,7.06
2022-12-04T16:13:43.964Z,7.21
2022-12-04T16:16:10.390Z,7.47
2022-12-04T16:18:36.804Z,6.99
2022-12-04T16:21:03.340Z,7.22
2022-12-04T16:23:29.792Z,7.26
2022-12-04T16:25:56.182Z,7.23
2022-12-04T16:28:22.663Z,6.98
2022-12-04T16:30:49.155Z,7.26
2022-12-04T16:33:15.788Z,7.13
2022-12-04T16:35:42.264Z,6.96
2022-12-04T16:38:08.677Z,6.98
2022-12-04T16:40:35.174Z,7.47
2022-12-04T16:43:01.646Z,7.04
2022-12-04T16:45:28.158Z,7.27
2022-12-04T16:47:54.684Z,7.25
2022-12-04T16:50:21.100Z,7.08
2022-12-04T16:52:47.521Z,6.94
2022-12-04T16:55:14.131Z,7.27
2022-12-04T16:57:40.563Z,7.02
2022-12-04T17:00:06.991Z,7.19
2022-12-04T17:02:33.401Z,7.01
2022-12-04T17:05:00.155Z,6.61
2022-12-04T17:07:26.799Z,7.29
2022-12-04T17:09:53.169Z,7.29
2022-12-04T17:12:19.580Z,7.38
2022-12-04T17:14:45.992Z,7.18
2022-12-04T17:17:12.377Z,7.49
2022-12-04T17:19:38.808Z,7.44
2022-12-04T17:22:05.313Z,7.31
2022-12-04T17:24:31.740Z,7.42
2022-12-04T17:26:58.164Z,6.92
2022-12-04T17:29:24.676Z,7.45
2022-12-04T17:31:51.107Z,6.97
2022-12-04T17:34:17.581Z,7.60
2022-12-04T17:36:43.996Z,7.67
2022-12-04T17:39:10.428Z,7.53
2022-12-04T17:41:36.797Z,7.63
2022-12-04T17:44:03.249Z,7.44
2022-12-04T17:46:29.699Z,7.54
2022-12-04T17:48:56.078Z,7.72
2022-12-04T17:51:22.561Z,8.02
2022-12-04T17:53:48.995Z,7.45
2022-12-04T17:56:15.361Z,7.47
2022-12-04T17:58:41.794Z,7.64
2022-12-04T18:01:08.199Z,7.90
2022-12-04T18:03:34.665Z,7.63
2022-12-04T18:06:01.234Z,7.51
2022-12-04T18:08:27.628Z,7.91
2022-12-04T18:10:54.036Z,7.66
2022-12-04T18:13:20.538Z,7.61
2022-12-04T18:15:46.945Z,7.54
2022-12-04T18:18:13.348Z,8.01
2022-12-04T18:20:39.823Z,7.42
2022-12-04T18:23:06.233Z,7.84
2022-12-04T18:25:32.759Z,7.90
2022-12-04T18:27:59.186Z,7.81
2022-12-04T18:30:25.592Z,7.92
2022-12-04T18:32:51.975Z,8.02
2022-12-04T18:35:18.514Z,7.31
2022-12-04T18:37:44.862Z,7.59
2022-12-04T18:40:11.336Z,8.15
2022-12-04T18:42:37.832Z,7.49
2022-12-04T18:45:04.221Z,7.72
2022-12-04T18:47:30.641Z,7.51
2022-12-04T18:49:57.354Z,7.49
2022-12-04T18:52:24.015Z,7.75
2022-12-04T18:54:50.425Z,7.81
2022-12-04T18:57:16.941Z,7.78
2022-12-04T18:59:43.313Z,7.88
2022-12-04T19:02:09.719Z,7.89
2022-12-04T19:04:36.165Z,8.01
2022-12-04T19:07:02.532Z,7.88
2022-12-04T19:10:02.489Z,7.73
2022-12-04T19:12:15.385Z,7.97
2022-12-04T19:14:41.815Z,7.75
2022-12-04T19:17:08.277Z,7.58
2022-12-04T19:19:34.691Z,7.58
2022-12-04T19:22:01.210Z,7.61
2022-12-04T19:24:27.642Z,7.86
2022-12-04T19:26:54.111Z,7.57
2022-12-04T19:29:20.570Z,7.79
2022-12-04T19:31:47.073Z,8.15
2022-12-04T19:34:13.573Z,7.65
2022-12-04T19:36:40.002Z,7.75
2022-12-04T19:39:06.403Z,8.16
2022-12-04T19:41:32.751Z,7.85
2022-12-04T19:43:59.137Z,7.93
2022-12-04T19:46:25.651Z,8.09
2022-12-04T19:48:52.159Z,8.12
2022-12-04T19:51:18.578Z,8.19
2022-12-04T19:53:45.156Z,7.83
2022-12-04T19:56:11.648Z,8.02
2022-12-04T19:58:38.035Z,7.96
2022-12-04T20:01:04.490Z,8.12
2022-12-04T20:03:31.096Z,7.91
2022-12-04T20:05:57.684Z,8.43
2022-12-04T20:08:24.113Z,8.54
2022-12-04T20:10:50.489Z,7.93
2022-12-04T20:13:16.959Z,8.18
2022-12-04T20:15:43.467Z,8.13
2022-12-04T20:18:09.844Z,7.98
2022-12-04T20:20:36.209Z,8.31
2022-12-04T20:23:02.615Z,8.28
2022-12-04T20:25:29.158Z,8.57
2022-12-04T20:27:55.537Z,8.53
2022-12-04T20:30:22.039Z,8.26
2022-12-04T20:32:48.538Z,8.07
2022-12-04T20:35:14.891Z,8.47
2022-12-04T20:37:41.258Z,8.40
2022-12-04T20:40:07.702Z,8.67
2022-12-04T20:42:34.107Z,8.97
2022-12-04T20:45:00.496Z,8.69
2022-12-04T20:47:26.890Z,8.66
2022-12-04T20:49:53.300Z,9.54
2022-12-04T20:52:20.041Z,9.96
2022-12-04T20:54:46.490Z,10.21
2022-12-04T20:57:12.941Z,10.63
2022-12-04T20:59:39.339Z,11.06
2022-12-04T21:02:05.783Z,11.18
2022-12-04T21:04:32.201Z,11.83
2022-12-04T21:06:58.685Z,12.26
2022-12-04T21:09:25.142Z,12.55
2022-12-04T21:11:51.592Z,13.28
2022-12-04T21:14:17.964Z,14.16
2022-12-04T21:16:44.652Z,13.45
2022-12-04T21:19:11.163Z,14.60
2022-12-04T21:21:37.690Z,14.09
2022-12-04T21:24:04.197Z,14.74
2022-12-04T21:26:30.557Z,14.34
2022-12-04T21:28:56.967Z,14.26
2022-12-04T21:31:23.552Z,14.49
2022-12-04T21:33:49.982Z,14.58
2022-12-04T21:36:16.382Z,14.37
2022-12-04T21:38:42.804Z,15.30
2022-12-04T21:41:09.270Z,13.93
2022-12-04T21:43:35.757Z,14.18
2022-12-04T21:46:08.860Z,14.27
2022-12-04T21:48:35.554Z,13.02
2022-12-04T21:51:02.062Z,13.73
2022-12-04T21:53:28.494Z,13.07
2022-12-04T21:55:55.040Z,12.55
2022-12-04T21:58:21.424Z,13.41
2022-12-04T22:00:47.940Z,12.99
2022-12-04T22:03:14.407Z,12.92
2022-12-04T22:05:40.877Z,12.57
2022-12-04T22:08:07.375Z,11.78
2022-12-04T22:10:33.907Z,11.94
2022-12-04T22:13:00.294Z,12.97
2022-12-04T22:15:26.733Z,11.66
2022-12-04T22:17:53.150Z,11.74
2022-12-04T22:20:19.531Z,10.70
2022-12-04T22:22:45.970Z,10.84
2022-12-04T22:25:12.518Z,11.87
2022-12-04T22:27:38.915Z,11.17
2022-12-04T22:30:05.938Z,10.50
2022-12-04T22:32:32.579Z,10.46
2022-12-04T22:34:59.012Z,10.09
2022-12-04T22:37:25.437Z,10.45
2022-12-04T22:39:51.835Z,9.94
2022-12-04T22:42:18.250Z,9.79
2022-12-04T22:44:44.618Z,9.63
2022-12-04T22:47:11.159Z,10.12
2022-12-04T22:49:37.536Z,9.79
2022-12-04T22:52:03.914Z,9.63
2022-12-04T22:54:30.407Z,9.50
2022-12-04T22:56:56.814Z,9.35
2022-12-04T22:59:23.285Z,9.60
2022-12-04T23:01:49.723Z,9.32
2022-12-04T23:04:16.270Z,9.04
2022-12-04T23:06:42.660Z,9.15
2022-12-04T23:09:09.054Z,8.74
2022-12-04T23:11:35.580Z,8.99
2022-12-04T23:14:02.015Z,8.88
2022-12-04T23:16:28.445Z,8.73
2022-12-04T23:18:54.990Z,9.04
2022-12-04T23:21:21.408Z,9.07
2022-12-04T23:23:47.881Z,9.19
2022-12-04T23:26:14.324Z,8.73
2022-12-04T23:28:40.753Z,9.06
2022-12-04T23:31:07.224Z,9.09
2022-12-04T23:33:33.684Z,8.78
2022-12-04T23:36:00.284Z,8.56
2022-12-04T23:38:26.735Z,9.31
2022-12-04T23:40:53.161Z,8.95
2022-12-04T23:43:19.567Z,9.26
2022-12-04T23:45:45.990Z,8.72
2022-12-04T23:48:12.409Z,8.47
2022-12-04T23:50:38.827Z,8.68
2022-12-04T23:53:05.226Z,8.50
2022-12-04T23:55:34.491Z,9.14
2022-12-04T23:58:01.205Z,8.63
